Aviation Digital Data Service (ADDS)

Output produced by METARs form (1234 UTC 25 July 2017)
found at http://www.aviationweather.gov/adds/metars/
 
KCXY 251156Z 27005KT 10SM BKN046 21/14 A3005 RMK AO2 SLP175 70002 T02060144 10206 20178 51020
KCXY 251056Z 25005KT 10SM SCT038 19/14 A3003 RMK AO2 SLP169 T01890139
KCXY 250956Z AUTO 25004KT 10SM CLR 18/13 A3001 RMK AO2 SLP162 T01830133
KCXY 250856Z AUTO 28006KT 10SM CLR 19/13 A2999 RMK AO2 SLP154 T01890133 53009
KCXY 250756Z AUTO 26005KT 10SM CLR 19/14 A2997 RMK AO2 SLP148 T01890139
KCXY 250656Z AUTO 28004KT 10SM CLR 20/14 A2997 RMK AO2 SLP146 T02000139
KCXY 250556Z AUTO 25003KT 10SM CLR 20/15 A2997 RMK AO2 SLP145 T02000150 10256 20194 51022
KCXY 250456Z AUTO 27005KT 10SM CLR 22/14 A2995 RMK AO2 SLP141 T02170144 403110217
KCXY 250356Z AUTO 30005KT 10SM CLR 24/14 A2993 RMK AO2 SLP133 T02390144
KCXY 250256Z AUTO 30009KT 10SM BKN090 OVC110 25/15 A2990 RMK AO2 SLP123 T02500150 53022
KCXY 250156Z AUTO 27006KT 10SM BKN090 OVC100 25/18 A2989 RMK AO2 SLP119 T02500178
KCXY 250056Z 25003KT 10SM BKN075 OVC100 23/21 A2984 RMK AO2 SLP104 T02330206
KCXY 242356Z 28003KT 10SM SCT065 BKN100 24/21 A2983 RMK AO2 SLP102 60002 T02390206 10311 20239 51018
KCXY 242256Z 25008KT 10SM SCT070 BKN090 BKN120 25/21 A2981 RMK AO2 LTG DSNT E-S RAE23 TSB03E18 SLP094 P0001 T02500206
KCXY 242224Z 23008KT 5SM HZ FEW060 OVC090 24/20 A2981 RMK AO2 LTG DSNT NE RAE23 TSB03E18 P0001 T02440200
KCXY 242203Z 21011KT 5SM -TSRA FEW055 BKN090 OVC110 25/21 A2981 RMK AO2 LTG DSNT NE TSB03 P0001 T02500211
KCXY 242156Z 28013G19KT 5SM RA FEW055 SCT065 OVC110 25/21 A2982 RMK AO2 LTG DSNT NE RAB18 TSB36E51 SLP096 P0001 T02500211
KCXY 242142Z 31010G18KT 10SM -TSRA FEW060 SCT070 OVC100 27/20 A2980 RMK AO2 RAB18 TSB36 P0000 T02720200
KCXY 242056Z 23008G14KT 10SM SCT060 SCT075 30/18 A2978 RMK AO2 LTG DSNT W SLP083 T03000178 56009
KCXY 241956Z 24007KT 10SM FEW050 SCT110 31/19 A2979 RMK AO2 SLP086 T03060189
KCXY 241856Z 10SM FEW044 FEW050 SCT065 31/19 A2979 RMK AO2 SLP087 T03060189
KCXY 241756Z 36005KT 10SM BKN043 29/18 A2981 RMK AO2 SLP092 T02890183 10300 20228 58003
KCXY 241656Z 01005KT 10SM SCT036 BKN047 BKN060 28/18 A2982 RMK AO2 SLP095 T02780183
KCXY 241556Z 36007KT 10SM FEW028 BKN035 BKN045 27/19 A2981 RMK AO2 SLP094 T02720194
KCXY 241456Z 36004KT 10SM FEW028 SCT047 27/19 A2982 RMK AO2 SLP094 T02670194 51007
KCXY 241356Z 34005KT 10SM FEW016 24/19 A2981 RMK AO2 SLP092 T02440189
KCXY 241256Z 31007KT 10SM SCT016 23/19 A2981 RMK AO2 SLP093 T02330189
KCXY 241156Z 29003KT 10SM SCT018 23/19 A2980 RMK AO2 SLP088 60025 70082 T02280189 10228 20217 53027
KCXY 241056Z 32004KT 10SM OVC048 22/19 A2977 RMK AO2 RAB09E46 SLP080 P0001 T02170189
KCXY 241011Z AUTO 33013G17KT 8SM -RA SCT008 SCT027 BKN037 22/21 A2974 RMK AO2 RAB09 P0001 T02220206
KCXY 240956Z AUTO 26005KT 10SM SCT022 BKN037 22/21 A2973 RMK AO2 RAB03E43 SLP065 P0023 T02220206
KCXY 240929Z AUTO 25004KT 10SM -RA BKN022 OVC026 22/21 A2972 RMK AO2 RAB03 P0021 T02220206
KCXY 240920Z AUTO 24004KT 2SM +RA BR BKN022 BKN027 OVC033 22/21 A2972 RMK AO2 VIS 1 1/2V5 RAB03 P0021 T02220206
KCXY 240912Z AUTO 31006KT 1 1/4SM R08/5500VP6000FT +RA BR BKN022 OVC050 22/21 A2972 RMK AO2 RAB03 P0016 T02220206
KCXY 240907Z AUTO 31007KT 2 1/2SM R08/5500VP6000FT +RA BR BKN021 BKN048 OVC055 23/21 A2972 RMK AO2 RAB03 P0008 T02280206
KCXY 240856Z AUTO 00000KT 10SM FEW023 BKN055 OVC095 23/21 A2971 RMK AO2 RAB42E52 SLP060 P0000 60001 T02280206 56016
KCXY 240756Z AUTO 22003KT 10SM FEW007 BKN055 BKN090 22/21 A2973 RMK AO2 RAE0659 SLP066 P0000 T02220206
KCXY 240656Z AUTO 14003KT 10SM -RA FEW007 23/21 A2974 RMK AO2 SLP069 P0001 T02280206
KCXY 240556Z AUTO 11003KT 10SM -RA SCT010 SCT033 BKN070 23/21 A2976 RMK AO2 RAB0459 SLP076 P0013 60013 T02280206 10239 20228 56014
KCXY 240554Z AUTO 11003KT 10SM -RA SCT010 BKN033 BKN070 23/21 A2976 RMK AO2 RAB0459 P0013
KCXY 240511Z AUTO 00000KT 3SM RA BR OVC009 23/21 A2976 RMK AO2 RAB0459 P0012 T02280206
KCXY 240501Z AUTO 00000KT 1 3/4SM R08/4500VP6000FT +RA BR OVC009 23/21 A2976 RMK AO2 RAB0459 P0010 T02280206
KCXY 240456Z AUTO VRB03KT 10SM OVC009 23/21 A2977 RMK AO2 CIG 007V013 SLP078 T02280206 403170228
KCXY 240427Z AUTO 11004KT 10SM BKN013 OVC049 23/21 A2978 RMK AO2 T02330206
KCXY 240356Z AUTO 12005KT 10SM FEW011 SCT050 23/21 A2978 RMK AO2 LTG DSNT N SLP083 T02280206
KCXY 240318Z AUTO 12006KT 10SM BKN011 BKN075 BKN110 23/21 A2980 RMK AO2 T02280206
KCXY 240256Z AUTO 12006KT 10SM BKN009 BKN013 OVC110 23/21 A2980 RMK AO2 SLP090 T02330206 51009
KCXY 240156Z AUTO 12003KT 10SM BKN009 OVC095 23/21 A2979 RMK AO2 SLP086 T02330206
KCXY 240153Z AUTO 00000KT 10SM BKN009 OVC095 23/21 A2980 RMK AO2
KCXY 240056Z 14004KT 10SM SCT009 BKN095 OVC110 24/21 A2978 RMK AO2 SLP081 T02390211
KCXY 240036Z 13006KT 10SM BKN009 BKN013 OVC044 24/21 A2977 RMK AO2 T02390211